createdAt,value
2022-10-18T00:01:52.249Z,18.83
2022-10-18T00:04:18.719Z,21.83
2022-10-18T00:06:45.253Z,17.42
2022-10-18T00:09:12.053Z,14.85
2022-10-18T00:11:38.897Z,20.73
2022-10-18T00:14:05.422Z,25.92
2022-10-18T00:16:31.857Z,21.83
2022-10-18T00:18:58.356Z,24.45
2022-10-18T00:21:25.576Z,27.52
2022-10-18T00:23:52.806Z,25.52
2022-10-18T00:26:20.284Z,24.08
2022-10-18T00:28:47.288Z,32.80
2022-10-18T00:31:15.774Z,25.65
2022-10-18T00:33:43.470Z,26.98
2022-10-18T00:36:10.465Z,23.00
2022-10-18T00:38:37.172Z,25.67
2022-10-18T00:41:03.884Z,21.80
2022-10-18T00:43:30.396Z,28.02
2022-10-18T00:45:56.869Z,23.65
2022-10-18T00:48:23.712Z,22.20
2022-10-18T00:50:51.929Z,18.10
2022-10-18T00:53:19.490Z,28.83
2022-10-18T00:55:46.561Z,25.08
2022-10-18T00:58:14.078Z,28.20
2022-10-18T01:00:41.727Z,20.65
2022-10-18T01:03:08.656Z,32.40
2022-10-18T01:05:41.367Z,18.23
2022-10-18T01:08:14.503Z,28.83
2022-10-18T01:10:47.169Z,24.75
2022-10-18T01:13:16.755Z,22.40
2022-10-18T01:18:32.886Z,23.60
2022-10-18T01:21:05.614Z,27.20
2022-10-18T01:23:40.835Z,19.05
2022-10-18T01:26:07.245Z,15.80
2022-10-18T01:28:36.772Z,29.85
2022-10-18T01:31:04.852Z,22.05
2022-10-18T01:33:40.668Z,17.92
2022-10-18T01:36:19.678Z,23.75
2022-10-18T01:38:47.135Z,27.08
2022-10-18T01:41:15.829Z,27.75
2022-10-18T01:43:43.578Z,23.08
2022-10-18T01:46:11.852Z,23.52
2022-10-18T01:48:38.402Z,16.95
2022-10-18T01:51:05.532Z,26.00
2022-10-18T01:53:34.194Z,21.48
2022-10-18T01:56:19.369Z,26.27
2022-10-18T01:58:48.760Z,22.73
2022-10-18T02:01:20.602Z,20.38
2022-10-18T02:03:47.760Z,25.30
2022-10-18T02:06:22.620Z,19.75
2022-10-18T02:08:56.398Z,26.88
2022-10-18T02:11:22.882Z,28.00
2022-10-18T02:13:53.239Z,30.20
2022-10-18T02:16:21.596Z,27.05
2022-10-18T02:18:58.909Z,18.45
2022-10-18T02:21:25.681Z,22.17
2022-10-18T02:23:52.474Z,27.33
2022-10-18T02:26:18.901Z,25.65
2022-10-18T02:28:45.708Z,19.88
2022-10-18T02:31:27.157Z,23.45
2022-10-18T02:34:07.311Z,28.38
2022-10-18T02:36:37.015Z,24.48
2022-10-18T02:39:11.590Z,23.02
2022-10-18T02:41:38.067Z,28.13
2022-10-18T02:44:04.598Z,20.50
2022-10-18T02:46:31.075Z,14.95
2022-10-18T02:48:57.523Z,23.27
2022-10-18T02:51:24.822Z,25.13
2022-10-18T02:53:51.275Z,31.42
2022-10-18T02:56:17.725Z,32.17
2022-10-18T02:58:44.157Z,23.08
2022-10-18T03:01:10.690Z,22.90
2022-10-18T03:03:37.246Z,24.90
2022-10-18T03:06:03.780Z,23.23
2022-10-18T03:08:30.223Z,19.17
2022-10-18T03:10:56.750Z,25.05
2022-10-18T03:13:23.251Z,29.17
2022-10-18T03:15:49.775Z,26.30
2022-10-18T03:18:16.223Z,25.90
2022-10-18T03:20:42.649Z,24.60
2022-10-18T03:23:09.099Z,24.52
2022-10-18T03:25:35.581Z,20.95
2022-10-18T03:28:02.128Z,18.00
2022-10-18T03:30:28.703Z,26.45
2022-10-18T03:32:55.333Z,24.00
2022-10-18T03:35:22.347Z,17.25
2022-10-18T03:37:49.307Z,23.67
2022-10-18T03:40:15.817Z,29.20
2022-10-18T03:42:42.447Z,21.00
2022-10-18T03:45:09.328Z,39.75
2022-10-18T03:47:35.739Z,41.28
2022-10-18T03:50:02.169Z,40.30
2022-10-18T03:52:28.818Z,37.42
2022-10-18T03:54:55.374Z,41.45
2022-10-18T03:57:21.821Z,21.30
2022-10-18T03:59:48.852Z,21.67
2022-10-18T04:02:15.336Z,22.13
2022-10-18T04:04:41.801Z,32.83
2022-10-18T04:07:08.260Z,41.13
2022-10-18T04:09:34.860Z,37.30
2022-10-18T04:12:01.298Z,34.10
2022-10-18T04:14:27.720Z,22.98
2022-10-18T04:16:54.371Z,24.83
2022-10-18T04:19:20.861Z,34.22
2022-10-18T04:21:47.382Z,36.92
2022-10-18T04:24:13.849Z,26.88
2022-10-18T04:26:40.287Z,35.45
2022-10-18T04:29:06.921Z,34.22
2022-10-18T04:31:33.360Z,42.55
2022-10-18T04:34:00.107Z,36.10
2022-10-18T04:36:26.707Z,33.58
2022-10-18T04:38:53.177Z,39.20
2022-10-18T04:41:19.624Z,36.80
2022-10-18T04:46:17.531Z,41.03
2022-10-18T04:48:43.958Z,37.35
2022-10-18T04:51:10.437Z,49.78
2022-10-18T04:53:36.927Z,58.53
2022-10-18T04:56:03.408Z,51.17
2022-10-18T04:58:29.838Z,52.05
2022-10-18T05:00:56.301Z,29.13
2022-10-18T05:03:22.781Z,53.80
2022-10-18T05:06:01.466Z,42.17
2022-10-18T05:08:29.121Z,55.35
2022-10-18T05:10:55.740Z,53.88
2022-10-18T05:13:22.315Z,54.72
2022-10-18T05:15:48.857Z,36.97
2022-10-18T05:18:15.455Z,38.95
2022-10-18T05:20:42.044Z,25.63
2022-10-18T05:23:12.977Z,36.90
2022-10-18T05:25:40.015Z,42.47
2022-10-18T05:28:10.944Z,33.85
2022-10-18T05:30:42.598Z,43.38
2022-10-18T05:33:12.431Z,27.90
2022-10-18T05:35:39.197Z,32.83
2022-10-18T05:38:06.268Z,38.88
2022-10-18T05:40:33.198Z,45.22
2022-10-18T05:42:59.716Z,38.05
2022-10-18T05:45:27.420Z,48.97
2022-10-18T05:47:54.683Z,28.65
2022-10-18T05:50:21.263Z,26.20
2022-10-18T05:52:47.841Z,35.75
2022-10-18T05:55:14.586Z,31.73
2022-10-18T05:57:41.124Z,26.55
2022-10-18T06:00:08.122Z,34.30
2022-10-18T06:02:43.799Z,42.90
2022-10-18T06:05:10.435Z,53.55
2022-10-18T06:07:36.950Z,46.17
2022-10-18T06:10:03.628Z,51.67
2022-10-18T06:12:30.067Z,57.75
2022-10-18T06:14:56.514Z,52.53
2022-10-18T06:17:22.984Z,55.70
2022-10-18T06:19:49.593Z,37.33
2022-10-18T06:22:16.076Z,36.08
2022-10-18T06:24:42.842Z,29.40
2022-10-18T06:27:12.322Z,35.25
2022-10-18T06:29:39.263Z,41.55
2022-10-18T06:32:07.730Z,39.90
2022-10-18T06:37:39.813Z,68.15
2022-10-18T06:40:06.712Z,56.10
2022-10-18T06:42:33.466Z,51.33
2022-10-18T06:45:00.654Z,55.67
2022-10-18T06:47:27.070Z,53.95
2022-10-18T06:49:53.557Z,39.85
2022-10-18T06:52:22.562Z,71.57
2022-10-18T06:54:49.014Z,57.63
2022-10-18T06:57:15.388Z,66.10
2022-10-18T06:59:41.891Z,45.50
2022-10-18T07:02:09.271Z,63.65
2022-10-18T07:04:35.845Z,61.97
2022-10-18T07:07:02.921Z,88.72
2022-10-18T07:09:30.085Z,78.43
2022-10-18T07:11:58.199Z,62.97
2022-10-18T07:14:29.057Z,69.18
2022-10-18T07:17:02.848Z,71.38
2022-10-18T07:19:30.301Z,75.20
2022-10-18T07:21:59.963Z,90.38
2022-10-18T07:24:26.657Z,79.43
2022-10-18T07:26:53.702Z,79.10
2022-10-18T07:29:20.112Z,84.72
2022-10-18T07:31:46.811Z,65.93
2022-10-18T07:34:13.910Z,79.53
2022-10-18T07:36:40.584Z,50.75
2022-10-18T07:39:07.188Z,50.00
2022-10-18T07:41:34.248Z,76.60
2022-10-18T07:44:01.038Z,67.50
2022-10-18T07:46:27.622Z,82.13
2022-10-18T07:48:54.702Z,83.47
2022-10-18T07:51:22.318Z,93.40
2022-10-18T07:53:48.944Z,95.43
2022-10-18T07:56:16.752Z,92.53
2022-10-18T07:58:43.894Z,77.50
2022-10-18T08:01:10.500Z,96.47
2022-10-18T08:03:37.473Z,61.65
2022-10-18T08:06:04.577Z,80.90
2022-10-18T08:08:31.883Z,78.45
2022-10-18T08:11:02.717Z,87.40
2022-10-18T08:13:31.907Z,108.38
2022-10-18T08:16:02.219Z,120.25
2022-10-18T08:18:29.132Z,104.50
2022-10-18T08:20:55.958Z,73.53
2022-10-18T08:23:22.345Z,104.97
2022-10-18T08:25:49.130Z,127.13
2022-10-18T08:28:17.281Z,122.22
2022-10-18T08:30:43.801Z,109.65
2022-10-18T08:33:10.223Z,86.97
2022-10-18T08:35:36.725Z,122.65
2022-10-18T08:38:03.163Z,108.75
2022-10-18T08:40:44.087Z,130.50
2022-10-18T08:43:21.799Z,92.50
2022-10-18T08:45:53.793Z,119.10
2022-10-18T08:48:31.316Z,96.32
2022-10-18T08:50:59.555Z,113.72
2022-10-18T08:53:36.218Z,98.63
2022-10-18T08:56:15.553Z,123.10
2022-10-18T08:58:44.703Z,121.68
2022-10-18T09:01:31.233Z,89.57
2022-10-18T09:04:08.482Z,124.85
2022-10-18T09:06:48.974Z,76.78
2022-10-18T09:09:34.542Z,101.63
2022-10-18T09:12:21.281Z,93.93
2022-10-18T09:14:57.133Z,104.82
2022-10-18T09:17:29.814Z,113.45
2022-10-18T09:20:16.739Z,127.47
2022-10-18T09:23:05.349Z,112.30
2022-10-18T09:25:35.423Z,110.93
2022-10-18T09:28:20.951Z,150.63
2022-10-18T09:30:58.752Z,129.18
2022-10-18T09:33:29.931Z,96.35
2022-10-18T09:36:01.825Z,96.43
2022-10-18T09:38:31.300Z,113.07
2022-10-18T09:41:03.682Z,87.32
2022-10-18T09:43:45.846Z,101.40
2022-10-18T09:46:13.468Z,123.00
2022-10-18T09:48:46.604Z,129.50
2022-10-18T09:51:22.026Z,152.25
2022-10-18T09:53:51.506Z,141.85
2022-10-18T09:56:22.429Z,129.50
2022-10-18T09:58:49.731Z,128.55
2022-10-18T10:01:18.250Z,129.60
2022-10-18T10:03:44.710Z,139.10
2022-10-18T10:06:15.097Z,84.18
2022-10-18T10:08:42.351Z,131.13
2022-10-18T10:11:27.474Z,131.63
2022-10-18T10:13:57.815Z,100.65
2022-10-18T10:16:26.736Z,105.13
2022-10-18T10:18:54.245Z,100.80
2022-10-18T10:21:21.735Z,99.28
2022-10-18T10:23:53.148Z,105.82
2022-10-18T10:26:23.239Z,93.13
2022-10-18T10:28:49.969Z,96.70
2022-10-18T10:31:19.686Z,139.77
2022-10-18T10:33:47.523Z,124.72
2022-10-18T10:36:18.297Z,80.13
2022-10-18T10:38:45.184Z,120.60
2022-10-18T10:41:30.186Z,102.53
2022-10-18T10:43:56.701Z,87.20
2022-10-18T10:46:23.437Z,145.93
2022-10-18T10:48:56.320Z,131.02
2022-10-18T10:51:38.806Z,149.07
2022-10-18T10:54:11.375Z,103.75
2022-10-18T10:56:50.332Z,111.10
2022-10-18T10:59:18.633Z,118.90
2022-10-18T11:01:45.364Z,147.50
2022-10-18T11:04:26.239Z,113.35
2022-10-18T11:07:06.682Z,122.40
2022-10-18T11:09:40.332Z,133.95
2022-10-18T11:12:14.621Z,98.43
2022-10-18T11:14:42.994Z,131.32
2022-10-18T11:17:44.775Z,84.28
2022-10-18T11:20:15.080Z,81.60
2022-10-18T11:22:51.792Z,107.65
2022-10-18T11:25:19.594Z,101.80
2022-10-18T11:27:55.074Z,93.85
2022-10-18T11:30:29.407Z,86.78
2022-10-18T11:32:55.809Z,92.82
2022-10-18T11:35:35.529Z,112.82
2022-10-18T11:38:06.106Z,79.93
2022-10-18T11:40:42.552Z,78.80
2022-10-18T11:43:15.313Z,86.03
2022-10-18T11:45:41.673Z,72.93
2022-10-18T11:48:26.911Z,88.55
2022-10-18T11:51:04.713Z,55.65
2022-10-18T11:54:00.863Z,44.47
2022-10-18T11:56:30.393Z,46.95
2022-10-18T11:59:02.429Z,43.42
2022-10-18T12:01:28.950Z,52.50
2022-10-18T12:04:14.223Z,34.45
2022-10-18T12:06:42.049Z,40.60
2022-10-18T12:09:14.538Z,39.92
2022-10-18T12:11:46.899Z,34.53
2022-10-18T12:14:25.680Z,26.45
2022-10-18T12:17:02.082Z,30.45
2022-10-18T12:19:39.724Z,29.73
2022-10-18T12:22:13.564Z,26.65
2022-10-18T12:24:40.581Z,31.60
2022-10-18T12:27:11.580Z,34.63
2022-10-18T12:29:56.440Z,30.98
2022-10-18T12:32:26.838Z,30.17
2022-10-18T12:34:56.805Z,28.85
2022-10-18T12:37:42.212Z,34.63
2022-10-18T12:40:18.511Z,29.40
2022-10-18T12:42:49.435Z,37.53
2022-10-18T12:45:26.911Z,36.25
2022-10-18T12:47:53.524Z,38.33
2022-10-18T12:50:26.770Z,26.95
2022-10-18T12:53:02.506Z,31.35
2022-10-18T12:55:31.031Z,26.60
2022-10-18T12:57:57.538Z,22.17
2022-10-18T13:00:29.819Z,25.70
2022-10-18T13:03:18.000Z,26.88
2022-10-18T13:05:56.015Z,25.15
2022-10-18T13:08:30.075Z,26.23
2022-10-18T13:10:59.551Z,26.15
2022-10-18T13:13:39.764Z,22.30
2022-10-18T13:16:33.528Z,21.45
2022-10-18T13:19:09.209Z,19.13
2022-10-18T13:21:41.860Z,21.85
2022-10-18T13:24:17.559Z,23.52
2022-10-18T13:26:46.960Z,20.45
2022-10-18T13:29:13.426Z,20.30
2022-10-18T13:31:43.482Z,21.88
2022-10-18T13:34:17.579Z,19.77
2022-10-18T13:36:44.002Z,20.05
2022-10-18T13:39:19.117Z,20.02
2022-10-18T13:41:45.497Z,15.63
2022-10-18T13:44:33.289Z,16.63
2022-10-18T13:46:59.696Z,17.33
2022-10-18T13:49:38.298Z,15.98
2022-10-18T13:52:04.686Z,16.60
2022-10-18T13:54:43.327Z,17.60
2022-10-18T13:57:25.364Z,18.52
2022-10-18T14:00:10.690Z,18.20
2022-10-18T14:02:51.551Z,16.73
2022-10-18T14:05:25.476Z,16.25
2022-10-18T14:07:56.736Z,18.73
2022-10-18T14:10:43.368Z,16.35
2022-10-18T14:13:17.322Z,9.90
2022-10-18T14:15:44.828Z,12.65
2022-10-18T14:18:14.302Z,12.60
2022-10-18T14:21:01.354Z,16.13
2022-10-18T14:23:35.619Z,11.88
2022-10-18T14:26:09.409Z,11.57
2022-10-18T14:28:55.115Z,12.50
2022-10-18T14:31:22.291Z,11.60
2022-10-18T14:33:58.039Z,13.10
2022-10-18T14:36:27.176Z,13.15
2022-10-18T14:38:58.242Z,10.70
2022-10-18T14:41:24.900Z,13.18
2022-10-18T14:43:52.358Z,12.68
2022-10-18T14:46:18.748Z,11.52
2022-10-18T14:48:54.000Z,11.52
2022-10-18T14:51:20.614Z,10.00
2022-10-18T14:53:47.770Z,11.65
2022-10-18T14:56:25.629Z,10.85
2022-10-18T14:58:52.816Z,11.50
2022-10-18T15:01:20.447Z,10.32
2022-10-18T15:03:47.274Z,11.25
2022-10-18T15:06:19.058Z,9.93
2022-10-18T15:08:47.651Z,11.18
2022-10-18T15:11:14.879Z,12.30
2022-10-18T15:13:55.266Z,10.82
2022-10-18T15:16:23.492Z,8.68
2022-10-18T15:19:26.553Z,7.90
2022-10-18T15:21:59.187Z,9.75
2022-10-18T15:24:36.664Z,8.10
2022-10-18T15:27:22.547Z,6.30
2022-10-18T15:29:49.121Z,7.18
2022-10-18T15:32:15.495Z,6.65
2022-10-18T15:34:41.992Z,6.65
2022-10-18T15:37:27.679Z,7.28
2022-10-18T15:40:12.836Z,6.95
2022-10-18T15:42:39.343Z,5.93
2022-10-18T15:45:27.982Z,6.88
2022-10-18T15:48:00.702Z,6.93
2022-10-18T15:50:47.704Z,7.53
2022-10-18T15:53:20.206Z,6.97
2022-10-18T15:55:52.172Z,6.82
2022-10-18T15:58:24.084Z,6.38
2022-10-18T16:00:51.541Z,7.78
2022-10-18T16:03:19.108Z,7.95
2022-10-18T16:05:45.687Z,6.90
2022-10-18T16:08:25.229Z,5.65
2022-10-18T16:10:51.966Z,6.60
2022-10-18T16:13:18.442Z,6.72
2022-10-18T16:15:44.884Z,5.88
2022-10-18T16:18:14.223Z,6.00
2022-10-18T16:20:41.199Z,5.63
2022-10-18T16:23:22.190Z,6.85
2022-10-18T16:25:49.002Z,5.88
2022-10-18T16:28:20.555Z,6.35
2022-10-18T16:30:54.665Z,5.22
2022-10-18T16:33:21.728Z,5.13
2022-10-18T16:35:48.474Z,4.57
2022-10-18T16:38:35.548Z,4.90
2022-10-18T16:41:05.953Z,4.65
2022-10-18T16:43:33.064Z,5.00
2022-10-18T16:45:59.662Z,5.30
2022-10-18T16:48:26.076Z,4.70
2022-10-18T16:50:53.683Z,5.00
2022-10-18T16:53:23.299Z,6.10
2022-10-18T16:55:54.494Z,6.05
2022-10-18T17:00:50.650Z,8.07
2022-10-18T17:03:17.379Z,7.55
2022-10-18T17:05:43.992Z,9.55
2022-10-18T17:08:21.292Z,7.82
2022-10-18T17:10:49.747Z,8.10
2022-10-18T17:13:16.615Z,8.05
2022-10-18T17:15:43.132Z,7.85
2022-10-18T17:18:13.658Z,7.65
2022-10-18T17:20:40.747Z,8.60
2022-10-18T17:23:08.795Z,8.38
2022-10-18T17:25:42.811Z,8.85
2022-10-18T17:28:18.751Z,8.48
2022-10-18T17:30:45.531Z,8.68
2022-10-18T17:33:13.262Z,8.95
2022-10-18T17:35:40.187Z,8.52
2022-10-18T17:38:07.407Z,7.57
2022-10-18T17:40:34.155Z,8.15
2022-10-18T17:43:00.925Z,7.78
2022-10-18T17:45:27.355Z,8.32
2022-10-18T17:47:54.472Z,7.25
2022-10-18T17:50:22.402Z,8.68
2022-10-18T17:52:48.976Z,8.02
2022-10-18T17:55:15.581Z,8.93
2022-10-18T17:57:42.771Z,10.23
2022-10-18T18:00:11.491Z,10.18
2022-10-18T18:02:42.041Z,11.93
2022-10-18T18:05:11.856Z,11.43
2022-10-18T18:07:41.474Z,11.35
2022-10-18T18:10:08.920Z,11.00
2022-10-18T18:12:36.036Z,12.25
2022-10-18T18:15:02.649Z,11.75
2022-10-18T18:17:34.554Z,10.80
2022-10-18T18:20:06.818Z,10.80
2022-10-18T18:22:33.770Z,10.50
2022-10-18T18:25:00.978Z,11.27
2022-10-18T18:27:28.385Z,10.02
2022-10-18T18:29:56.167Z,10.80
2022-10-18T18:32:22.661Z,10.65
2022-10-18T18:34:49.148Z,12.70
2022-10-18T18:37:15.606Z,11.68
2022-10-18T18:39:42.116Z,11.10
2022-10-18T18:42:08.683Z,13.15
2022-10-18T18:44:35.504Z,11.85
2022-10-18T18:47:02.216Z,10.50
2022-10-18T18:49:28.848Z,9.57
2022-10-18T18:51:55.365Z,10.20
2022-10-18T18:54:22.077Z,11.55
2022-10-18T18:56:48.519Z,11.32
2022-10-18T18:59:15.406Z,11.88
2022-10-18T19:01:42.630Z,12.00
2022-10-18T19:04:09.775Z,13.02
2022-10-18T19:06:37.829Z,12.98
2022-10-18T19:09:05.411Z,13.55
2022-10-18T19:11:33.066Z,11.77
2022-10-18T19:14:00.068Z,12.80
2022-10-18T19:16:27.673Z,11.65
2022-10-18T19:18:58.675Z,10.73
2022-10-18T19:21:26.685Z,11.77
2022-10-18T19:23:53.499Z,12.02
2022-10-18T19:26:25.177Z,13.23
2022-10-18T19:28:51.638Z,11.32
2022-10-18T19:31:18.159Z,10.82
2022-10-18T19:33:55.650Z,12.07
2022-10-18T19:36:25.512Z,11.43
2022-10-18T19:38:51.968Z,9.95
2022-10-18T19:41:18.459Z,10.15
2022-10-18T19:43:45.031Z,9.02
2022-10-18T19:46:11.531Z,10.98
2022-10-18T19:48:38.033Z,9.48
2022-10-18T19:51:06.405Z,10.05
2022-10-18T19:53:34.702Z,8.55
2022-10-18T19:56:02.479Z,9.30
2022-10-18T19:58:29.002Z,10.18
2022-10-18T20:00:56.009Z,8.93
2022-10-18T20:03:23.392Z,9.70
2022-10-18T20:05:56.681Z,8.77
2022-10-18T20:08:23.981Z,9.13
2022-10-18T20:10:50.484Z,11.30
2022-10-18T20:13:16.968Z,10.02
2022-10-18T20:15:43.456Z,9.77
2022-10-18T20:18:09.899Z,7.55
2022-10-18T20:20:36.938Z,8.63
2022-10-18T20:23:03.621Z,8.93
2022-10-18T20:25:30.004Z,8.38
2022-10-18T20:27:56.409Z,9.50
2022-10-18T20:30:22.797Z,8.57
2022-10-18T20:32:51.168Z,10.00
2022-10-18T20:35:17.594Z,7.30
2022-10-18T20:37:43.987Z,8.35
2022-10-18T20:40:10.863Z,9.02
2022-10-18T20:42:37.292Z,9.27
2022-10-18T20:47:30.312Z,8.60
2022-10-18T20:49:56.999Z,9.05
2022-10-18T20:52:23.341Z,8.73
2022-10-18T20:54:49.728Z,10.00
2022-10-18T20:57:16.157Z,9.98
2022-10-18T20:59:42.585Z,9.25
2022-10-18T21:02:11.608Z,9.85
2022-10-18T21:04:41.415Z,9.50
2022-10-18T21:07:08.789Z,9.15
2022-10-18T21:09:35.184Z,8.90
2022-10-18T21:12:01.618Z,8.95
2022-10-18T21:14:28.078Z,9.10
2022-10-18T21:16:54.582Z,10.10
2022-10-18T21:19:22.278Z,8.20
2022-10-18T21:21:50.421Z,8.23
2022-10-18T21:24:17.729Z,9.38
2022-10-18T21:26:44.645Z,7.85
2022-10-18T21:29:11.821Z,8.30
2022-10-18T21:31:39.342Z,7.65
2022-10-18T21:34:07.136Z,7.90
2022-10-18T21:36:34.747Z,7.72
2022-10-18T21:39:02.195Z,7.72
2022-10-18T21:41:28.610Z,7.85
2022-10-18T21:43:55.320Z,8.73
2022-10-18T21:46:22.847Z,9.25
2022-10-18T21:48:50.522Z,9.52
2022-10-18T21:51:18.024Z,9.75
2022-10-18T21:53:45.459Z,10.10
2022-10-18T21:56:13.392Z,9.00
2022-10-18T21:58:40.267Z,9.50
2022-10-18T22:01:08.068Z,8.32
2022-10-18T22:03:34.758Z,8.52
2022-10-18T22:06:02.116Z,8.77
2022-10-18T22:08:28.977Z,9.57
2022-10-18T22:10:56.881Z,7.35
2022-10-18T22:13:23.592Z,8.20
2022-10-18T22:15:50.013Z,9.05
2022-10-18T22:18:16.843Z,7.78
2022-10-18T22:20:43.283Z,7.53
2022-10-18T22:23:12.446Z,7.32
2022-10-18T22:25:38.817Z,7.30
2022-10-18T22:28:05.273Z,8.10
2022-10-18T22:30:31.656Z,7.55
2022-10-18T22:32:58.057Z,7.50
2022-10-18T22:35:24.545Z,7.93
2022-10-18T22:37:53.564Z,7.07
2022-10-18T22:40:19.941Z,7.45
2022-10-18T22:42:46.367Z,7.07
2022-10-18T22:45:12.805Z,6.15
2022-10-18T22:47:39.195Z,7.55
2022-10-18T22:50:05.781Z,6.93
2022-10-18T22:52:32.442Z,6.63
2022-10-18T22:54:59.133Z,7.30
2022-10-18T22:57:28.548Z,7.82
2022-10-18T22:59:54.962Z,7.50
2022-10-18T23:02:21.529Z,6.90
2022-10-18T23:04:47.963Z,8.20
2022-10-18T23:07:14.397Z,7.22
2022-10-18T23:12:12.354Z,8.57
2022-10-18T23:14:38.758Z,7.93
2022-10-18T23:17:05.195Z,14.57
2022-10-18T23:19:31.576Z,11.90
2022-10-18T23:21:57.997Z,12.85
2022-10-18T23:24:24.489Z,9.38
2022-10-18T23:26:50.880Z,15.00
2022-10-18T23:29:17.481Z,8.45
2022-10-18T23:31:43.954Z,6.50
2022-10-18T23:34:10.405Z,7.63
2022-10-18T23:36:36.833Z,7.28
2022-10-18T23:39:03.837Z,6.80
2022-10-18T23:41:30.442Z,18.90
2022-10-18T23:43:56.903Z,7.60
2022-10-18T23:46:23.725Z,7.45
2022-10-18T23:48:50.322Z,6.63
2022-10-18T23:51:17.324Z,7.60
2022-10-18T23:53:44.061Z,6.85
2022-10-18T23:56:12.071Z,7.80
2022-10-18T23:58:39.151Z,7.53
